sensor_id;sensor_type;location;lat;lon;timestamp;P1;durP1;ratioP1;P2;durP2;ratioP2
24521;SDS011;12680;57.804;12.190;2023-05-10T00:01:18;4.30;;;2.53;;
24521;SDS011;12680;57.804;12.190;2023-05-10T00:03:45;3.83;;;2.58;;
24521;SDS011;12680;57.804;12.190;2023-05-10T00:06:11;3.38;;;2.50;;
24521;SDS011;12680;57.804;12.190;2023-05-10T00:08:38;7.47;;;2.30;;
24521;SDS011;12680;57.804;12.190;2023-05-10T00:11:05;4.15;;;2.75;;
24521;SDS011;12680;57.804;12.190;2023-05-10T00:13:32;3.53;;;2.75;;
24521;SDS011;12680;57.804;12.190;2023-05-10T00:15:58;4.60;;;2.75;;
24521;SDS011;12680;57.804;12.190;2023-05-10T00:18:25;7.22;;;2.47;;
24521;SDS011;12680;57.804;12.190;2023-05-10T00:20:52;4.07;;;2.40;;
24521;SDS011;12680;57.804;12.190;2023-05-10T00:23:19;3.72;;;2.40;;
24521;SDS011;12680;57.804;12.190;2023-05-10T00:25:46;5.38;;;2.40;;
24521;SDS011;12680;57.804;12.190;2023-05-10T00:28:12;3.83;;;2.30;;
24521;SDS011;12680;57.804;12.190;2023-05-10T00:30:39;5.18;;;2.50;;
24521;SDS011;12680;57.804;12.190;2023-05-10T00:33:06;3.45;;;2.47;;
24521;SDS011;12680;57.804;12.190;2023-05-10T00:35:33;4.55;;;2.80;;
24521;SDS011;12680;57.804;12.190;2023-05-10T00:38:00;4.38;;;2.38;;
24521;SDS011;12680;57.804;12.190;2023-05-10T00:40:26;6.50;;;2.90;;
24521;SDS011;12680;57.804;12.190;2023-05-10T00:42:54;4.43;;;2.75;;
24521;SDS011;12680;57.804;12.190;2023-05-10T00:45:21;6.03;;;2.75;;
24521;SDS011;12680;57.804;12.190;2023-05-10T00:47:49;5.80;;;2.40;;
24521;SDS011;12680;57.804;12.190;2023-05-10T00:50:18;3.13;;;2.13;;
24521;SDS011;12680;57.804;12.190;2023-05-10T00:52:45;3.72;;;2.50;;
24521;SDS011;12680;57.804;12.190;2023-05-10T00:55:12;3.05;;;2.08;;
24521;SDS011;12680;57.804;12.190;2023-05-10T00:57:38;6.15;;;2.35;;
24521;SDS011;12680;57.804;12.190;2023-05-10T01:00:06;3.03;;;2.03;;
24521;SDS011;12680;57.804;12.190;2023-05-10T01:02:34;6.55;;;2.72;;
24521;SDS011;12680;57.804;12.190;2023-05-10T01:05:02;6.40;;;2.55;;
24521;SDS011;12680;57.804;12.190;2023-05-10T01:07:30;5.45;;;2.80;;
24521;SDS011;12680;57.804;12.190;2023-05-10T01:09:56;5.47;;;2.47;;
24521;SDS011;12680;57.804;12.190;2023-05-10T01:12:23;5.43;;;2.95;;
24521;SDS011;12680;57.804;12.190;2023-05-10T01:14:51;4.35;;;2.47;;
24521;SDS011;12680;57.804;12.190;2023-05-10T01:17:18;4.80;;;2.35;;
24521;SDS011;12680;57.804;12.190;2023-05-10T01:19:47;4.07;;;2.20;;
24521;SDS011;12680;57.804;12.190;2023-05-10T01:25:28;5.60;;;2.80;;
24521;SDS011;12680;57.804;12.190;2023-05-10T01:33:43;8.07;;;2.65;;
24521;SDS011;12680;57.804;12.190;2023-05-10T01:36:32;3.63;;;2.72;;
24521;SDS011;12680;57.804;12.190;2023-05-10T01:50:03;7.32;;;2.97;;
24521;SDS011;12680;57.804;12.190;2023-05-10T01:52:33;12.88;;;2.97;;
24521;SDS011;12680;57.804;12.190;2023-05-10T01:55:05;3.95;;;2.78;;
24521;SDS011;12680;57.804;12.190;2023-05-10T01:57:35;5.97;;;3.00;;
24521;SDS011;12680;57.804;12.190;2023-05-10T02:00:06;3.55;;;2.55;;
24521;SDS011;12680;57.804;12.190;2023-05-10T02:02:38;7.93;;;2.53;;
24521;SDS011;12680;57.804;12.190;2023-05-10T02:05:08;8.88;;;2.80;;
24521;SDS011;12680;57.804;12.190;2023-05-10T02:07:38;3.45;;;2.63;;
24521;SDS011;12680;57.804;12.190;2023-05-10T02:10:06;6.53;;;2.60;;
24521;SDS011;12680;57.804;12.190;2023-05-10T02:12:35;4.68;;;2.72;;
24521;SDS011;12680;57.804;12.190;2023-05-10T02:15:04;3.90;;;2.80;;
24521;SDS011;12680;57.804;12.190;2023-05-10T02:17:33;4.75;;;2.20;;
24521;SDS011;12680;57.804;12.190;2023-05-10T02:20:03;6.05;;;2.90;;
24521;SDS011;12680;57.804;12.190;2023-05-10T02:22:32;3.72;;;2.67;;
24521;SDS011;12680;57.804;12.190;2023-05-10T02:25:00;3.67;;;2.90;;
24521;SDS011;12680;57.804;12.190;2023-05-10T02:27:28;4.28;;;2.53;;
24521;SDS011;12680;57.804;12.190;2023-05-10T02:29:56;6.53;;;2.90;;
24521;SDS011;12680;57.804;12.190;2023-05-10T02:32:24;4.20;;;2.50;;
24521;SDS011;12680;57.804;12.190;2023-05-10T02:34:53;6.85;;;3.10;;
24521;SDS011;12680;57.804;12.190;2023-05-10T02:37:21;3.38;;;2.30;;
24521;SDS011;12680;57.804;12.190;2023-05-10T02:39:50;4.55;;;2.83;;
24521;SDS011;12680;57.804;12.190;2023-05-10T02:42:19;5.72;;;2.97;;
24521;SDS011;12680;57.804;12.190;2023-05-10T02:44:52;4.63;;;2.60;;
24521;SDS011;12680;57.804;12.190;2023-05-10T02:47:25;4.22;;;2.72;;
24521;SDS011;12680;57.804;12.190;2023-05-10T02:49:53;4.90;;;2.72;;
24521;SDS011;12680;57.804;12.190;2023-05-10T02:52:25;7.05;;;2.95;;
24521;SDS011;12680;57.804;12.190;2023-05-10T02:54:55;15.85;;;3.05;;
24521;SDS011;12680;57.804;12.190;2023-05-10T02:57:28;6.18;;;2.55;;
24521;SDS011;12680;57.804;12.190;2023-05-10T02:59:58;4.85;;;2.92;;
24521;SDS011;12680;57.804;12.190;2023-05-10T03:02:26;4.25;;;2.83;;
24521;SDS011;12680;57.804;12.190;2023-05-10T03:04:57;5.82;;;2.80;;
24521;SDS011;12680;57.804;12.190;2023-05-10T03:07:24;4.50;;;2.42;;
24521;SDS011;12680;57.804;12.190;2023-05-10T03:09:51;4.85;;;2.67;;
24521;SDS011;12680;57.804;12.190;2023-05-10T03:17:56;7.28;;;2.75;;
24521;SDS011;12680;57.804;12.190;2023-05-10T03:20:33;4.38;;;2.63;;
24521;SDS011;12680;57.804;12.190;2023-05-10T03:25:42;4.25;;;2.50;;
24521;SDS011;12680;57.804;12.190;2023-05-10T03:28:10;4.93;;;2.67;;
24521;SDS011;12680;57.804;12.190;2023-05-10T03:30:38;4.47;;;2.90;;
24521;SDS011;12680;57.804;12.190;2023-05-10T03:33:07;6.82;;;2.47;;
24521;SDS011;12680;57.804;12.190;2023-05-10T03:35:35;4.60;;;2.67;;
24521;SDS011;12680;57.804;12.190;2023-05-10T03:38:02;4.70;;;2.83;;
24521;SDS011;12680;57.804;12.190;2023-05-10T03:40:29;9.93;;;3.58;;
24521;SDS011;12680;57.804;12.190;2023-05-10T03:42:58;3.42;;;2.70;;
24521;SDS011;12680;57.804;12.190;2023-05-10T03:45:25;4.28;;;2.88;;
24521;SDS011;12680;57.804;12.190;2023-05-10T03:47:52;6.72;;;2.88;;
24521;SDS011;12680;57.804;12.190;2023-05-10T03:50:20;6.47;;;3.38;;
24521;SDS011;12680;57.804;12.190;2023-05-10T03:52:47;6.65;;;2.95;;
24521;SDS011;12680;57.804;12.190;2023-05-10T03:55:14;5.65;;;2.88;;
24521;SDS011;12680;57.804;12.190;2023-05-10T03:57:42;4.45;;;3.00;;
24521;SDS011;12680;57.804;12.190;2023-05-10T04:00:09;9.43;;;2.90;;
24521;SDS011;12680;57.804;12.190;2023-05-10T04:02:37;4.65;;;2.65;;
24521;SDS011;12680;57.804;12.190;2023-05-10T04:05:07;6.25;;;2.80;;
24521;SDS011;12680;57.804;12.190;2023-05-10T04:07:34;3.58;;;2.72;;
24521;SDS011;12680;57.804;12.190;2023-05-10T04:10:01;5.25;;;2.90;;
24521;SDS011;12680;57.804;12.190;2023-05-10T04:12:29;5.47;;;2.75;;
24521;SDS011;12680;57.804;12.190;2023-05-10T04:14:55;4.50;;;2.90;;
24521;SDS011;12680;57.804;12.190;2023-05-10T04:17:23;5.85;;;3.00;;
24521;SDS011;12680;57.804;12.190;2023-05-10T04:19:50;5.80;;;2.63;;
24521;SDS011;12680;57.804;12.190;2023-05-10T04:22:19;6.32;;;3.33;;
24521;SDS011;12680;57.804;12.190;2023-05-10T04:24:46;6.68;;;3.15;;
24521;SDS011;12680;57.804;12.190;2023-05-10T04:27:13;5.63;;;3.33;;
24521;SDS011;12680;57.804;12.190;2023-05-10T04:29:48;5.10;;;3.17;;
24521;SDS011;12680;57.804;12.190;2023-05-10T04:32:14;6.55;;;2.90;;
24521;SDS011;12680;57.804;12.190;2023-05-10T04:34:43;4.88;;;3.10;;
24521;SDS011;12680;57.804;12.190;2023-05-10T04:37:10;9.07;;;3.10;;
24521;SDS011;12680;57.804;12.190;2023-05-10T04:39:37;3.90;;;2.88;;
24521;SDS011;12680;57.804;12.190;2023-05-10T04:42:07;5.07;;;3.13;;
24521;SDS011;12680;57.804;12.190;2023-05-10T04:44:35;6.82;;;2.83;;
24521;SDS011;12680;57.804;12.190;2023-05-10T04:47:02;6.38;;;2.75;;
24521;SDS011;12680;57.804;12.190;2023-05-10T04:49:29;5.22;;;2.95;;
24521;SDS011;12680;57.804;12.190;2023-05-10T04:52:00;3.90;;;2.75;;
24521;SDS011;12680;57.804;12.190;2023-05-10T04:54:30;4.53;;;2.90;;
24521;SDS011;12680;57.804;12.190;2023-05-10T04:56:57;7.38;;;2.92;;
24521;SDS011;12680;57.804;12.190;2023-05-10T04:59:24;6.75;;;3.10;;
24521;SDS011;12680;57.804;12.190;2023-05-10T05:01:51;9.55;;;3.33;;
24521;SDS011;12680;57.804;12.190;2023-05-10T05:04:18;4.32;;;2.90;;
24521;SDS011;12680;57.804;12.190;2023-05-10T05:06:45;5.03;;;3.03;;
24521;SDS011;12680;57.804;12.190;2023-05-10T05:09:12;10.05;;;3.17;;
24521;SDS011;12680;57.804;12.190;2023-05-10T05:11:43;8.30;;;3.00;;
24521;SDS011;12680;57.804;12.190;2023-05-10T05:14:10;3.20;;;2.58;;
24521;SDS011;12680;57.804;12.190;2023-05-10T05:16:37;5.38;;;2.90;;
24521;SDS011;12680;57.804;12.190;2023-05-10T05:19:04;5.07;;;3.00;;
24521;SDS011;12680;57.804;12.190;2023-05-10T05:21:32;6.13;;;2.55;;
24521;SDS011;12680;57.804;12.190;2023-05-10T05:23:59;6.47;;;2.63;;
24521;SDS011;12680;57.804;12.190;2023-05-10T05:26:26;5.88;;;3.47;;
24521;SDS011;12680;57.804;12.190;2023-05-10T05:28:53;6.47;;;3.10;;
24521;SDS011;12680;57.804;12.190;2023-05-10T05:31:24;4.85;;;2.70;;
24521;SDS011;12680;57.804;12.190;2023-05-10T05:33:52;4.60;;;2.83;;
24521;SDS011;12680;57.804;12.190;2023-05-10T05:36:19;5.90;;;2.80;;
24521;SDS011;12680;57.804;12.190;2023-05-10T05:38:46;4.25;;;2.47;;
24521;SDS011;12680;57.804;12.190;2023-05-10T05:41:13;4.03;;;2.90;;
24521;SDS011;12680;57.804;12.190;2023-05-10T05:43:45;4.47;;;2.67;;
24521;SDS011;12680;57.804;12.190;2023-05-10T05:46:11;4.93;;;2.60;;
24521;SDS011;12680;57.804;12.190;2023-05-10T05:48:39;5.13;;;2.70;;
24521;SDS011;12680;57.804;12.190;2023-05-10T05:51:06;6.93;;;2.72;;
24521;SDS011;12680;57.804;12.190;2023-05-10T05:53:32;6.10;;;2.50;;
24521;SDS011;12680;57.804;12.190;2023-05-10T05:55:59;3.53;;;2.30;;
24521;SDS011;12680;57.804;12.190;2023-05-10T05:58:27;5.78;;;2.80;;
24521;SDS011;12680;57.804;12.190;2023-05-10T06:00:54;5.72;;;2.88;;
24521;SDS011;12680;57.804;12.190;2023-05-10T06:03:24;3.78;;;2.63;;
24521;SDS011;12680;57.804;12.190;2023-05-10T06:05:52;5.73;;;2.90;;
24521;SDS011;12680;57.804;12.190;2023-05-10T06:08:19;4.18;;;2.67;;
24521;SDS011;12680;57.804;12.190;2023-05-10T06:10:46;4.95;;;2.83;;
24521;SDS011;12680;57.804;12.190;2023-05-10T06:13:13;7.22;;;2.50;;
24521;SDS011;12680;57.804;12.190;2023-05-10T06:15:40;4.20;;;2.75;;
24521;SDS011;12680;57.804;12.190;2023-05-10T06:18:07;3.85;;;2.38;;
24521;SDS011;12680;57.804;12.190;2023-05-10T06:20:35;5.50;;;2.80;;
24521;SDS011;12680;57.804;12.190;2023-05-10T06:23:02;5.90;;;2.80;;
24521;SDS011;12680;57.804;12.190;2023-05-10T06:25:29;4.38;;;2.95;;
24521;SDS011;12680;57.804;12.190;2023-05-10T06:28:00;3.58;;;2.50;;
24521;SDS011;12680;57.804;12.190;2023-05-10T06:30:30;5.13;;;2.60;;
24521;SDS011;12680;57.804;12.190;2023-05-10T06:32:57;4.63;;;2.63;;
24521;SDS011;12680;57.804;12.190;2023-05-10T06:35:24;7.13;;;3.20;;
24521;SDS011;12680;57.804;12.190;2023-05-10T06:37:52;5.47;;;2.88;;
24521;SDS011;12680;57.804;12.190;2023-05-10T06:40:19;6.40;;;2.42;;
24521;SDS011;12680;57.804;12.190;2023-05-10T06:42:47;4.05;;;2.67;;
24521;SDS011;12680;57.804;12.190;2023-05-10T06:45:14;5.07;;;3.13;;
24521;SDS011;12680;57.804;12.190;2023-05-10T06:47:42;5.40;;;2.58;;
24521;SDS011;12680;57.804;12.190;2023-05-10T06:50:12;5.00;;;2.88;;
24521;SDS011;12680;57.804;12.190;2023-05-10T06:52:45;3.70;;;2.58;;
24521;SDS011;12680;57.804;12.190;2023-05-10T06:55:18;6.47;;;3.15;;
24521;SDS011;12680;57.804;12.190;2023-05-10T06:57:45;3.75;;;2.47;;
24521;SDS011;12680;57.804;12.190;2023-05-10T07:00:12;3.85;;;2.67;;
24521;SDS011;12680;57.804;12.190;2023-05-10T07:02:40;4.75;;;2.83;;
24521;SDS011;12680;57.804;12.190;2023-05-10T07:05:07;4.95;;;2.78;;
24521;SDS011;12680;57.804;12.190;2023-05-10T07:07:34;4.20;;;2.78;;
24521;SDS011;12680;57.804;12.190;2023-05-10T07:10:02;6.28;;;2.35;;
24521;SDS011;12680;57.804;12.190;2023-05-10T07:12:29;3.50;;;2.75;;
24521;SDS011;12680;57.804;12.190;2023-05-10T07:15:00;4.97;;;2.55;;
24521;SDS011;12680;57.804;12.190;2023-05-10T07:17:28;10.02;;;2.35;;
24521;SDS011;12680;57.804;12.190;2023-05-10T07:19:55;6.35;;;2.90;;
24521;SDS011;12680;57.804;12.190;2023-05-10T07:22:23;4.30;;;2.75;;
24521;SDS011;12680;57.804;12.190;2023-05-10T07:24:50;5.22;;;2.60;;
24521;SDS011;12680;57.804;12.190;2023-05-10T07:27:17;3.88;;;2.60;;
24521;SDS011;12680;57.804;12.190;2023-05-10T07:29:45;5.13;;;2.55;;
24521;SDS011;12680;57.804;12.190;2023-05-10T07:32:12;4.20;;;2.60;;
24521;SDS011;12680;57.804;12.190;2023-05-10T07:34:39;3.65;;;2.80;;
24521;SDS011;12680;57.804;12.190;2023-05-10T07:37:43;4.63;;;2.65;;
24521;SDS011;12680;57.804;12.190;2023-05-10T07:40:15;6.30;;;2.67;;
24521;SDS011;12680;57.804;12.190;2023-05-10T07:42:42;3.47;;;2.63;;
24521;SDS011;12680;57.804;12.190;2023-05-10T07:45:13;4.35;;;2.60;;
24521;SDS011;12680;57.804;12.190;2023-05-10T07:47:44;5.03;;;2.75;;
24521;SDS011;12680;57.804;12.190;2023-05-10T07:50:11;4.78;;;2.42;;
24521;SDS011;12680;57.804;12.190;2023-05-10T07:52:38;5.72;;;2.50;;
24521;SDS011;12680;57.804;12.190;2023-05-10T07:55:09;7.45;;;2.60;;
24521;SDS011;12680;57.804;12.190;2023-05-10T07:57:37;4.07;;;2.45;;
24521;SDS011;12680;57.804;12.190;2023-05-10T08:00:06;5.40;;;2.70;;
24521;SDS011;12680;57.804;12.190;2023-05-10T08:02:34;10.18;;;4.03;;
24521;SDS011;12680;57.804;12.190;2023-05-10T08:05:02;8.80;;;2.80;;
24521;SDS011;12680;57.804;12.190;2023-05-10T08:07:29;4.55;;;2.40;;
24521;SDS011;12680;57.804;12.190;2023-05-10T08:09:56;3.63;;;2.40;;
24521;SDS011;12680;57.804;12.190;2023-05-10T08:12:23;9.73;;;2.75;;
24521;SDS011;12680;57.804;12.190;2023-05-10T08:14:50;5.43;;;2.67;;
24521;SDS011;12680;57.804;12.190;2023-05-10T08:17:17;5.90;;;2.38;;
24521;SDS011;12680;57.804;12.190;2023-05-10T08:19:46;7.97;;;2.60;;
24521;SDS011;12680;57.804;12.190;2023-05-10T08:22:14;4.95;;;2.60;;
24521;SDS011;12680;57.804;12.190;2023-05-10T08:24:41;6.13;;;3.08;;
24521;SDS011;12680;57.804;12.190;2023-05-10T08:27:08;6.15;;;2.88;;
24521;SDS011;12680;57.804;12.190;2023-05-10T08:29:38;5.78;;;2.47;;
24521;SDS011;12680;57.804;12.190;2023-05-10T08:32:15;4.78;;;2.47;;
24521;SDS011;12680;57.804;12.190;2023-05-10T08:34:43;4.13;;;2.70;;
24521;SDS011;12680;57.804;12.190;2023-05-10T08:37:10;6.38;;;2.60;;
24521;SDS011;12680;57.804;12.190;2023-05-10T08:39:39;5.53;;;3.10;;
24521;SDS011;12680;57.804;12.190;2023-05-10T08:42:07;5.30;;;3.05;;
24521;SDS011;12680;57.804;12.190;2023-05-10T08:44:35;5.40;;;2.80;;
24521;SDS011;12680;57.804;12.190;2023-05-10T08:47:06;3.90;;;2.60;;
24521;SDS011;12680;57.804;12.190;2023-05-10T08:49:35;6.07;;;2.75;;
24521;SDS011;12680;57.804;12.190;2023-05-10T08:52:09;4.18;;;2.95;;
24521;SDS011;12680;57.804;12.190;2023-05-10T08:54:38;4.28;;;2.33;;
24521;SDS011;12680;57.804;12.190;2023-05-10T08:57:05;5.95;;;2.88;;
24521;SDS011;12680;57.804;12.190;2023-05-10T08:59:32;7.38;;;2.50;;
24521;SDS011;12680;57.804;12.190;2023-05-10T09:01:59;5.50;;;2.85;;
24521;SDS011;12680;57.804;12.190;2023-05-10T09:04:28;7.78;;;2.80;;
24521;SDS011;12680;57.804;12.190;2023-05-10T09:06:56;4.65;;;2.50;;
24521;SDS011;12680;57.804;12.190;2023-05-10T09:09:23;5.78;;;2.58;;
24521;SDS011;12680;57.804;12.190;2023-05-10T09:11:51;5.25;;;2.85;;
24521;SDS011;12680;57.804;12.190;2023-05-10T09:14:19;2.80;;;2.40;;
24521;SDS011;12680;57.804;12.190;2023-05-10T09:16:51;4.30;;;2.50;;
24521;SDS011;12680;57.804;12.190;2023-05-10T09:19:20;6.18;;;3.00;;
24521;SDS011;12680;57.804;12.190;2023-05-10T09:21:47;4.03;;;2.70;;
24521;SDS011;12680;57.804;12.190;2023-05-10T09:24:15;3.30;;;2.63;;
24521;SDS011;12680;57.804;12.190;2023-05-10T09:26:48;9.45;;;2.40;;
24521;SDS011;12680;57.804;12.190;2023-05-10T09:29:15;9.80;;;2.92;;
24521;SDS011;12680;57.804;12.190;2023-05-10T09:31:44;3.03;;;2.35;;
24521;SDS011;12680;57.804;12.190;2023-05-10T09:34:16;5.13;;;2.42;;
24521;SDS011;12680;57.804;12.190;2023-05-10T09:36:50;5.40;;;2.30;;
24521;SDS011;12680;57.804;12.190;2023-05-10T09:39:38;4.20;;;2.40;;
24521;SDS011;12680;57.804;12.190;2023-05-10T09:42:06;4.30;;;2.83;;
24521;SDS011;12680;57.804;12.190;2023-05-10T09:44:35;3.28;;;2.42;;
24521;SDS011;12680;57.804;12.190;2023-05-10T09:47:02;4.45;;;2.45;;
24521;SDS011;12680;57.804;12.190;2023-05-10T09:49:29;5.07;;;2.53;;
24521;SDS011;12680;57.804;12.190;2023-05-10T09:52:03;2.83;;;2.10;;
24521;SDS011;12680;57.804;12.190;2023-05-10T09:54:31;4.13;;;2.53;;
24521;SDS011;12680;57.804;12.190;2023-05-10T09:56:59;4.20;;;2.92;;
24521;SDS011;12680;57.804;12.190;2023-05-10T09:59:28;4.10;;;2.63;;
24521;SDS011;12680;57.804;12.190;2023-05-10T10:01:55;6.15;;;2.90;;
24521;SDS011;12680;57.804;12.190;2023-05-10T10:04:23;6.43;;;2.47;;
24521;SDS011;12680;57.804;12.190;2023-05-10T10:07:25;5.20;;;2.50;;
24521;SDS011;12680;57.804;12.190;2023-05-10T10:09:48;3.95;;;2.50;;
24521;SDS011;12680;57.804;12.190;2023-05-10T10:12:15;3.67;;;2.30;;
24521;SDS011;12680;57.804;12.190;2023-05-10T10:14:43;4.53;;;2.83;;
24521;SDS011;12680;57.804;12.190;2023-05-10T10:17:10;4.13;;;2.22;;
24521;SDS011;12680;57.804;12.190;2023-05-10T10:19:39;5.97;;;2.60;;
24521;SDS011;12680;57.804;12.190;2023-05-10T10:22:06;3.10;;;2.42;;
24521;SDS011;12680;57.804;12.190;2023-05-10T10:24:33;9.88;;;2.60;;
24521;SDS011;12680;57.804;12.190;2023-05-10T10:27:21;4.65;;;2.05;;
24521;SDS011;12680;57.804;12.190;2023-05-10T10:32:42;7.78;;;2.45;;
24521;SDS011;12680;57.804;12.190;2023-05-10T10:35:20;4.35;;;2.35;;
24521;SDS011;12680;57.804;12.190;2023-05-10T10:37:47;4.30;;;2.20;;
24521;SDS011;12680;57.804;12.190;2023-05-10T10:40:26;6.55;;;2.20;;
24521;SDS011;12680;57.804;12.190;2023-05-10T10:42:56;2.55;;;2.25;;
24521;SDS011;12680;57.804;12.190;2023-05-10T10:45:24;7.15;;;2.42;;
24521;SDS011;12680;57.804;12.190;2023-05-10T10:50:57;4.40;;;2.20;;
24521;SDS011;12680;57.804;12.190;2023-05-10T10:53:27;3.70;;;2.15;;
24521;SDS011;12680;57.804;12.190;2023-05-10T10:56:18;4.65;;;2.30;;
24521;SDS011;12680;57.804;12.190;2023-05-10T10:58:42;2.78;;;2.38;;
24521;SDS011;12680;57.804;12.190;2023-05-10T11:01:18;3.08;;;2.13;;
24521;SDS011;12680;57.804;12.190;2023-05-10T11:06:29;3.92;;;2.08;;
24521;SDS011;12680;57.804;12.190;2023-05-10T11:08:57;4.40;;;2.35;;
24521;SDS011;12680;57.804;12.190;2023-05-10T11:11:25;4.90;;;2.28;;
24521;SDS011;12680;57.804;12.190;2023-05-10T11:13:52;4.03;;;2.40;;
24521;SDS011;12680;57.804;12.190;2023-05-10T11:16:22;6.80;;;2.20;;
24521;SDS011;12680;57.804;12.190;2023-05-10T11:21:31;5.63;;;2.40;;
24521;SDS011;12680;57.804;12.190;2023-05-10T11:23:59;4.13;;;2.40;;
24521;SDS011;12680;57.804;12.190;2023-05-10T11:26:33;5.03;;;3.17;;
24521;SDS011;12680;57.804;12.190;2023-05-10T11:29:02;4.88;;;2.10;;
24521;SDS011;12680;57.804;12.190;2023-05-10T11:31:31;2.65;;;2.28;;
24521;SDS011;12680;57.804;12.190;2023-05-10T11:33:59;7.18;;;2.45;;
24521;SDS011;12680;57.804;12.190;2023-05-10T11:36:32;3.50;;;2.53;;
24521;SDS011;12680;57.804;12.190;2023-05-10T11:41:31;4.97;;;2.23;;
24521;SDS011;12680;57.804;12.190;2023-05-10T11:43:58;3.22;;;2.22;;
24521;SDS011;12680;57.804;12.190;2023-05-10T11:46:28;3.83;;;2.08;;
24521;SDS011;12680;57.804;12.190;2023-05-10T11:48:57;7.07;;;2.33;;
24521;SDS011;12680;57.804;12.190;2023-05-10T11:51:33;4.90;;;2.15;;
24521;SDS011;12680;57.804;12.190;2023-05-10T11:54:05;6.03;;;2.30;;
24521;SDS011;12680;57.804;12.190;2023-05-10T11:56:35;2.83;;;2.05;;
24521;SDS011;12680;57.804;12.190;2023-05-10T11:59:03;4.18;;;2.13;;
24521;SDS011;12680;57.804;12.190;2023-05-10T12:01:30;4.47;;;1.73;;
24521;SDS011;12680;57.804;12.190;2023-05-10T12:03:58;3.22;;;1.88;;
24521;SDS011;12680;57.804;12.190;2023-05-10T12:06:27;7.28;;;2.60;;
24521;SDS011;12680;57.804;12.190;2023-05-10T12:08:57;2.53;;;2.30;;
24521;SDS011;12680;57.804;12.190;2023-05-10T12:11:25;4.35;;;2.40;;
24521;SDS011;12680;57.804;12.190;2023-05-10T12:13:56;3.63;;;1.95;;
24521;SDS011;12680;57.804;12.190;2023-05-10T12:16:25;4.90;;;2.30;;
24521;SDS011;12680;57.804;12.190;2023-05-10T12:18:58;3.83;;;2.10;;
24521;SDS011;12680;57.804;12.190;2023-05-10T12:21:27;3.58;;;2.13;;
24521;SDS011;12680;57.804;12.190;2023-05-10T12:24:00;3.05;;;2.30;;
24521;SDS011;12680;57.804;12.190;2023-05-10T12:26:29;4.57;;;2.13;;
24521;SDS011;12680;57.804;12.190;2023-05-10T12:29:15;2.17;;;1.98;;
24521;SDS011;12680;57.804;12.190;2023-05-10T12:31:59;4.40;;;1.95;;
24521;SDS011;12680;57.804;12.190;2023-05-10T12:34:29;3.90;;;2.13;;
24521;SDS011;12680;57.804;12.190;2023-05-10T12:36:57;5.80;;;2.10;;
24521;SDS011;12680;57.804;12.190;2023-05-10T12:39:25;2.78;;;1.85;;
24521;SDS011;12680;57.804;12.190;2023-05-10T12:41:52;3.92;;;1.98;;
24521;SDS011;12680;57.804;12.190;2023-05-10T12:44:19;3.17;;;1.80;;
24521;SDS011;12680;57.804;12.190;2023-05-10T12:46:46;4.47;;;1.88;;
24521;SDS011;12680;57.804;12.190;2023-05-10T12:49:13;3.33;;;2.10;;
24521;SDS011;12680;57.804;12.190;2023-05-10T12:51:43;2.72;;;2.00;;
24521;SDS011;12680;57.804;12.190;2023-05-10T12:54:10;3.17;;;1.65;;
24521;SDS011;12680;57.804;12.190;2023-05-10T12:56:38;4.38;;;2.08;;
24521;SDS011;12680;57.804;12.190;2023-05-10T12:59:07;1.75;;;1.50;;
24521;SDS011;12680;57.804;12.190;2023-05-10T13:01:34;3.58;;;1.92;;
24521;SDS011;12680;57.804;12.190;2023-05-10T13:04:01;3.58;;;1.80;;
24521;SDS011;12680;57.804;12.190;2023-05-10T13:06:28;2.92;;;1.80;;
24521;SDS011;12680;57.804;12.190;2023-05-10T13:08:55;3.28;;;1.92;;
24521;SDS011;12680;57.804;12.190;2023-05-10T13:11:23;2.67;;;1.85;;
24521;SDS011;12680;57.804;12.190;2023-05-10T13:13:54;2.22;;;2.03;;
24521;SDS011;12680;57.804;12.190;2023-05-10T13:16:21;2.72;;;2.10;;
24521;SDS011;12680;57.804;12.190;2023-05-10T13:18:48;3.15;;;1.73;;
24521;SDS011;12680;57.804;12.190;2023-05-10T13:21:16;3.03;;;2.03;;
24521;SDS011;12680;57.804;12.190;2023-05-10T13:23:43;5.40;;;1.90;;
24521;SDS011;12680;57.804;12.190;2023-05-10T13:26:10;2.92;;;2.08;;
24521;SDS011;12680;57.804;12.190;2023-05-10T13:28:37;2.47;;;1.90;;
24521;SDS011;12680;57.804;12.190;2023-05-10T13:31:05;1.92;;;1.60;;
24521;SDS011;12680;57.804;12.190;2023-05-10T13:33:32;3.05;;;1.90;;
24521;SDS011;12680;57.804;12.190;2023-05-10T13:35:59;2.33;;;1.55;;
24521;SDS011;12680;57.804;12.190;2023-05-10T13:40:57;3.00;;;2.28;;
24521;SDS011;12680;57.804;12.190;2023-05-10T13:43:24;2.08;;;1.85;;
24521;SDS011;12680;57.804;12.190;2023-05-10T13:45:51;3.60;;;1.98;;
24521;SDS011;12680;57.804;12.190;2023-05-10T13:48:18;4.35;;;1.80;;
24521;SDS011;12680;57.804;12.190;2023-05-10T13:50:45;4.60;;;2.10;;
24521;SDS011;12680;57.804;12.190;2023-05-10T13:53:13;5.97;;;1.80;;
24521;SDS011;12680;57.804;12.190;2023-05-10T13:55:41;2.78;;;1.60;;
24521;SDS011;12680;57.804;12.190;2023-05-10T13:58:08;3.05;;;1.58;;
24521;SDS011;12680;57.804;12.190;2023-05-10T14:00:34;3.03;;;2.08;;
24521;SDS011;12680;57.804;12.190;2023-05-10T14:03:02;3.38;;;2.10;;
24521;SDS011;12680;57.804;12.190;2023-05-10T14:05:31;5.15;;;1.73;;
24521;SDS011;12680;57.804;12.190;2023-05-10T14:07:58;3.60;;;1.90;;
24521;SDS011;12680;57.804;12.190;2023-05-10T14:10:25;9.02;;;2.00;;
24521;SDS011;12680;57.804;12.190;2023-05-10T14:12:52;2.97;;;1.80;;
24521;SDS011;12680;57.804;12.190;2023-05-10T14:15:19;3.03;;;1.83;;
24521;SDS011;12680;57.804;12.190;2023-05-10T14:17:46;2.47;;;1.90;;
24521;SDS011;12680;57.804;12.190;2023-05-10T14:20:14;3.63;;;1.73;;
24521;SDS011;12680;57.804;12.190;2023-05-10T14:22:41;2.00;;;1.42;;
24521;SDS011;12680;57.804;12.190;2023-05-10T14:25:08;4.28;;;1.50;;
24521;SDS011;12680;57.804;12.190;2023-05-10T14:27:35;2.35;;;1.50;;
24521;SDS011;12680;57.804;12.190;2023-05-10T14:30:03;3.85;;;2.10;;
24521;SDS011;12680;57.804;12.190;2023-05-10T14:32:31;2.25;;;1.58;;
24521;SDS011;12680;57.804;12.190;2023-05-10T14:34:58;2.67;;;1.70;;
24521;SDS011;12680;57.804;12.190;2023-05-10T14:37:26;4.35;;;1.70;;
24521;SDS011;12680;57.804;12.190;2023-05-10T14:39:53;2.60;;;1.90;;
24521;SDS011;12680;57.804;12.190;2023-05-10T14:42:20;6.35;;;1.50;;
24521;SDS011;12680;57.804;12.190;2023-05-10T14:44:47;4.93;;;1.75;;
24521;SDS011;12680;57.804;12.190;2023-05-10T14:47:15;5.85;;;1.77;;
24521;SDS011;12680;57.804;12.190;2023-05-10T14:49:41;2.35;;;1.67;;
24521;SDS011;12680;57.804;12.190;2023-05-10T14:52:08;3.38;;;1.80;;
24521;SDS011;12680;57.804;12.190;2023-05-10T14:54:35;2.40;;;1.48;;
24521;SDS011;12680;57.804;12.190;2023-05-10T14:57:02;2.67;;;2.00;;
24521;SDS011;12680;57.804;12.190;2023-05-10T14:59:33;1.77;;;1.63;;
24521;SDS011;12680;57.804;12.190;2023-05-10T15:02:01;3.08;;;1.63;;
24521;SDS011;12680;57.804;12.190;2023-05-10T15:04:30;3.13;;;1.55;;
24521;SDS011;12680;57.804;12.190;2023-05-10T15:06:57;2.35;;;1.58;;
24521;SDS011;12680;57.804;12.190;2023-05-10T15:09:25;4.72;;;1.80;;
24521;SDS011;12680;57.804;12.190;2023-05-10T15:11:55;2.95;;;2.25;;
24521;SDS011;12680;57.804;12.190;2023-05-10T15:14:26;5.60;;;2.47;;
24521;SDS011;12680;57.804;12.190;2023-05-10T15:16:52;6.53;;;2.83;;
24521;SDS011;12680;57.804;12.190;2023-05-10T15:19:19;5.00;;;2.55;;
24521;SDS011;12680;57.804;12.190;2023-05-10T15:21:47;5.68;;;2.53;;
24521;SDS011;12680;57.804;12.190;2023-05-10T15:24:17;4.28;;;2.50;;
24521;SDS011;12680;57.804;12.190;2023-05-10T15:26:48;5.97;;;1.90;;